Time;durP1;ratioP1;P1;durP2;ratioP2;P2;SDS_P1;SDS_P2;PMS_P1;PMS_P2;Temp;Humidity;BMP_temperature;BMP_pressure;BME280_temperature;BME280_humidity;BME280_pressure;Samples;Min_cycle;Max_cycle;Signal;HPM_P1;HPM_P2
2023/11/24 00:00:17;;;;;;;20.90;5.03;;;10.30;1.00;;;;;;5039296;28;20594;-87
2023/11/24 00:02:42;;;;;;;17.33;4.20;;;10.30;1.00;;;;;;5040582;28;20186;-87
2023/11/24 00:05:08;;;;;;;12.57;3.93;;;10.30;1.00;;;;;;5016677;28;20448;-87
2023/11/24 00:07:37;;;;;;;33.87;4.07;;;10.30;1.00;;;;;;5042343;28;20211;-87
2023/11/24 00:10:07;;;;;;;20.53;4.03;;;10.30;1.00;;;;;;5025008;28;20201;-86
2023/11/24 00:12:32;;;;;;;15.90;2.77;;;10.30;1.00;;;;;;5038796;28;21020;-87
2023/11/24 00:15:02;;;;;;;16.23;4.50;;;10.30;1.00;;;;;;5022629;28;20455;-88
2023/11/24 00:17:28;;;;;;;19.03;4.40;;;10.30;1.00;;;;;;5041465;28;20209;-87
2023/11/24 00:19:53;;;;;;;11.03;3.90;;;10.30;1.00;;;;;;5048445;28;20508;-87
2023/11/24 00:22:19;;;;;;;25.73;4.83;;;10.30;1.00;;;;;;5028701;28;20179;-88
2023/11/24 00:24:44;;;;;;;25.33;5.30;;;10.30;1.00;;;;;;5050804;28;20190;-87
2023/11/24 00:27:10;;;;;;;21.77;4.70;;;10.30;1.00;;;;;;5022871;28;20218;-87
2023/11/24 00:29:36;;;;;;;25.73;5.27;;;10.30;1.00;;;;;;5048521;28;20200;-88
2023/11/24 00:32:04;;;;;;;20.20;4.60;;;10.30;1.00;;;;;;5031843;28;20476;-86
2023/11/24 00:34:30;;;;;;;14.30;3.93;;;10.30;1.00;;;;;;5048124;28;20194;-87
2023/11/24 00:36:58;;;;;;;17.27;4.40;;;10.30;1.00;;;;;;5027065;28;20429;-88
2023/11/24 00:39:24;;;;;;;10.07;3.40;;;10.30;99.90;;;;;;5029572;28;20462;-86
2023/11/24 00:41:49;;;;;;;24.30;4.73;;;10.30;99.90;;;;;;5045029;28;20433;-88
2023/11/24 00:44:15;;;;;;;20.23;4.07;;;10.30;99.90;;;;;;5042306;28;20209;-87
2023/11/24 00:46:41;;;;;;;21.73;5.00;;;10.30;99.90;;;;;;5040761;28;20175;-86
2023/11/24 00:49:06;;;;;;;14.90;3.10;;;10.20;99.90;;;;;;5041882;28;20895;-87
2023/11/24 00:51:32;;;;;;;20.47;4.20;;;10.20;1.00;;;;;;5043794;28;20194;-85
2023/11/24 00:53:57;;;;;;;17.30;3.50;;;10.20;1.00;;;;;;5034129;28;20203;-87
2023/11/24 00:56:23;;;;;;;21.23;4.33;;;10.20;1.00;;;;;;5038624;28;20194;-85
2023/11/24 00:58:50;;;;;;;12.57;3.53;;;10.20;1.00;;;;;;5044365;28;20214;-87
2023/11/24 01:01:16;;;;;;;11.90;3.00;;;10.20;1.00;;;;;;5031186;28;20245;-87
2023/11/24 01:03:42;;;;;;;23.23;3.87;;;10.20;1.00;;;;;;5040313;28;20444;-87
2023/11/24 01:06:08;;;;;;;18.27;3.90;;;10.20;99.90;;;;;;5021488;28;20445;-88
2023/11/24 01:08:33;;;;;;;17.10;4.63;;;10.20;1.00;;;;;;5029862;28;20203;-85
2023/11/24 01:11:01;;;;;;;25.60;4.03;;;10.20;99.90;;;;;;5046718;28;20455;-86
2023/11/24 01:13:31;;;;;;;20.83;4.73;;;10.20;99.90;;;;;;5049732;28;20187;-87
2023/11/24 01:15:57;;;;;;;19.30;5.27;;;10.20;99.90;;;;;;5023044;28;20535;-88
2023/11/24 01:18:25;;;;;;;18.57;3.97;;;10.10;99.90;;;;;;5039016;28;20485;-87
2023/11/24 01:20:51;;;;;;;13.73;4.03;;;10.10;1.00;;;;;;5047714;28;20441;-86
2023/11/24 01:23:16;;;;;;;17.60;3.43;;;10.10;1.00;;;;;;5048583;28;20461;-86
2023/11/24 01:25:41;;;;;;;15.93;3.53;;;10.10;1.00;;;;;;5030640;28;20182;-87
2023/11/24 01:28:07;;;;;;;16.57;3.60;;;10.10;99.90;;;;;;5049949;28;20234;-86
2023/11/24 01:30:33;;;;;;;19.17;5.00;;;10.10;1.00;;;;;;5045161;28;20221;-86
2023/11/24 01:32:59;;;;;;;20.13;4.10;;;10.10;99.90;;;;;;5035719;28;20210;-85
2023/11/24 01:35:24;;;;;;;17.40;4.47;;;10.10;99.90;;;;;;5048250;28;20923;-87
2023/11/24 01:37:50;;;;;;;21.20;4.30;;;10.10;1.00;;;;;;5028528;28;20238;-84
2023/11/24 01:40:18;;;;;;;26.33;4.87;;;10.10;92.70;;;;;;5037623;28;20229;-86
2023/11/24 01:42:43;;;;;;;18.43;3.77;;;10.10;1.00;;;;;;5032443;28;20183;-86
2023/11/24 01:45:10;;;;;;;16.87;4.50;;;10.10;1.00;;;;;;5047920;28;20510;-85
2023/11/24 01:47:37;;;;;;;14.10;3.10;;;10.10;1.00;;;;;;5045928;28;20202;-86
2023/11/24 01:50:03;;;;;;;20.60;3.63;;;10.10;1.00;;;;;;5047526;28;20437;-86
2023/11/24 01:52:30;;;;;;;24.07;5.67;;;10.10;1.00;;;;;;5044074;28;20476;-87
2023/11/24 01:54:56;;;;;;;19.37;4.00;;;10.10;99.90;;;;;;5026678;28;20800;-85
2023/11/24 01:57:23;;;;;;;21.30;4.00;;;10.10;99.90;;;;;;5036840;28;20472;-85
2023/11/24 01:59:48;;;;;;;20.40;4.37;;;10.10;99.90;;;;;;5040235;28;20461;-88
2023/11/24 02:02:20;;;;;;;21.73;3.80;;;10.10;99.90;;;;;;5044507;28;21043;-85
2023/11/24 02:04:46;;;;;;;18.10;4.83;;;10.00;99.90;;;;;;5023845;28;20259;-87
2023/11/24 02:07:12;;;;;;;19.40;3.30;;;10.00;1.00;;;;;;5033413;28;20445;-85
2023/11/24 02:09:37;;;;;;;8.20;1.80;;;9.90;99.90;;;;;;5040350;28;20487;-86
2023/11/24 02:12:03;;;;;;;20.40;3.00;;;9.70;1.00;;;;;;5018102;28;20191;-87
2023/11/24 02:14:28;;;;;;;7.83;1.67;;;9.60;3.30;;;;;;5029943;28;20199;-86
2023/11/24 02:16:55;;;;;;;5.43;2.00;;;9.50;1.00;;;;;;5026128;28;20201;-87
2023/11/24 02:19:21;;;;;;;11.50;2.50;;;9.40;95.30;;;;;;5044502;28;20199;-86
2023/11/24 02:21:47;;;;;;;13.50;2.73;;;9.20;1.00;;;;;;5040370;28;20434;-85
2023/11/24 02:24:13;;;;;;;13.70;3.37;;;9.20;1.00;;;;;;5047456;28;20529;-87
2023/11/24 02:26:39;;;;;;;22.90;3.63;;;9.10;99.90;;;;;;5025519;28;20197;-86
2023/11/24 02:29:05;;;;;;;14.83;2.97;;;9.00;1.00;;;;;;5045412;28;20214;-85
2023/11/24 02:31:32;;;;;;;13.30;3.60;;;9.00;99.90;;;;;;5050094;28;20583;-85
2023/11/24 02:33:58;;;;;;;16.60;4.90;;;8.90;99.90;;;;;;5043095;28;20199;-87
2023/11/24 02:36:27;;;;;;;15.60;3.60;;;9.00;99.90;;;;;;5048430;28;20443;-87
2023/11/24 02:38:53;;;;;;;15.30;3.50;;;9.00;99.90;;;;;;5045864;28;20465;-86
2023/11/24 02:41:22;;;;;;;9.10;2.70;;;9.00;99.90;;;;;;5040566;28;20451;-87
2023/11/24 02:43:49;;;;;;;11.50;3.17;;;9.00;99.90;;;;;;5047754;28;20446;-86
2023/11/24 02:46:17;;;;;;;13.60;4.20;;;9.10;99.90;;;;;;5049787;28;20451;-87
2023/11/24 02:48:44;;;;;;;18.17;4.20;;;9.10;99.90;;;;;;5042732;28;20469;-85
2023/11/24 02:51:10;;;;;;;15.20;3.90;;;9.10;99.90;;;;;;5043863;28;20440;-86
2023/11/24 02:53:37;;;;;;;16.90;3.40;;;9.20;99.90;;;;;;5038758;28;20442;-86
2023/11/24 02:56:03;;;;;;;18.03;4.17;;;9.20;99.90;;;;;;5044299;28;20471;-85
2023/11/24 02:58:30;;;;;;;13.50;4.07;;;9.20;99.90;;;;;;5046650;28;20900;-87
2023/11/24 03:00:56;;;;;;;18.83;3.47;;;9.20;23.90;;;;;;5040492;28;20438;-88
2023/11/24 03:03:23;;;;;;;7.30;2.80;;;9.20;1.00;;;;;;5047302;28;20444;-87
2023/11/24 03:05:50;;;;;;;11.20;2.83;;;9.20;1.00;;;;;;5031327;28;20183;-86
2023/11/24 03:08:17;;;;;;;14.10;3.57;;;9.20;99.90;;;;;;5045126;28;20449;-87
2023/11/24 03:10:43;;;;;;;12.97;3.37;;;9.10;99.90;;;;;;5047321;28;20479;-88
2023/11/24 03:13:09;;;;;;;15.23;3.30;;;9.20;99.90;;;;;;5029479;28;20798;-85
2023/11/24 03:15:35;;;;;;;12.90;2.90;;;9.10;92.70;;;;;;5048254;28;20470;-86
2023/11/24 03:18:01;;;;;;;9.00;2.43;;;9.10;1.00;;;;;;5038937;28;20501;-85
2023/11/24 03:20:26;;;;;;;10.50;2.53;;;9.10;1.00;;;;;;5037643;28;20494;-88
2023/11/24 03:22:52;;;;;;;12.20;2.60;;;9.00;1.00;;;;;;5047720;28;20187;-87
2023/11/24 03:25:17;;;;;;;16.43;3.13;;;9.00;1.00;;;;;;5030747;28;20194;-86
2023/11/24 03:27:43;;;;;;;11.03;2.20;;;9.00;1.00;;;;;;5023508;28;20207;-88
2023/11/24 03:30:09;;;;;;;14.10;2.57;;;8.90;99.90;;;;;;5042693;28;20558;-86
2023/11/24 03:32:34;;;;;;;9.30;2.70;;;8.90;99.90;;;;;;5039532;28;20186;-88
2023/11/24 03:35:00;;;;;;;9.60;2.47;;;8.90;99.90;;;;;;5040085;28;20441;-87
2023/11/24 03:37:26;;;;;;;13.40;2.23;;;8.90;1.00;;;;;;5045861;28;20214;-88
2023/11/24 03:39:51;;;;;;;19.80;3.07;;;8.90;1.00;;;;;;5047527;28;20261;-87
2023/11/24 03:42:19;;;;;;;12.83;2.67;;;8.90;99.90;;;;;;5048570;28;20182;-87
2023/11/24 03:44:45;;;;;;;13.13;2.90;;;9.00;99.90;;;;;;5041309;28;20175;-87
2023/11/24 03:47:10;;;;;;;12.43;2.33;;;9.00;99.90;;;;;;5039260;28;20456;-88
2023/11/24 03:49:36;;;;;;;15.37;2.60;;;9.00;27.70;;;;;;5046909;28;20468;-86
2023/11/24 03:52:01;;;;;;;29.73;3.50;;;9.00;99.90;;;;;;5031793;28;20218;-87
2023/11/24 03:54:27;;;;;;;7.80;2.50;;;9.00;1.00;;;;;;5028679;28;20190;-87
2023/11/24 03:56:52;;;;;;;21.90;2.97;;;9.00;99.90;;;;;;5045279;28;20258;-87
2023/11/24 03:59:18;;;;;;;13.83;2.60;;;9.00;1.00;;;;;;5050159;28;20238;-88
2023/11/24 04:01:44;;;;;;;12.80;2.80;;;9.00;99.90;;;;;;5040924;28;20198;-87
2023/11/24 04:04:09;;;;;;;16.63;3.63;;;9.00;1.00;;;;;;5048588;28;20179;-86
2023/11/24 04:06:35;;;;;;;10.50;3.07;;;9.00;1.00;;;;;;5045469;28;20672;-86
2023/11/24 04:09:00;;;;;;;8.70;2.30;;;9.00;99.90;;;;;;5046120;28;20202;-86
2023/11/24 04:11:26;;;;;;;15.83;3.27;;;9.00;1.00;;;;;;5043890;28;20206;-87
2023/11/24 04:13:53;;;;;;;9.53;2.70;;;9.00;1.00;;;;;;5035573;28;20190;-85
2023/11/24 04:16:19;;;;;;;12.03;2.33;;;9.00;99.90;;;;;;5027960;28;20470;-87
2023/11/24 04:18:45;;;;;;;9.43;2.10;;;9.00;99.90;;;;;;5043936;28;20525;-87
2023/11/24 04:21:10;;;;;;;9.17;2.60;;;8.90;99.90;;;;;;5041689;28;20444;-86
2023/11/24 04:23:37;;;;;;;8.60;2.10;;;9.00;99.90;;;;;;5026667;28;20426;-86
2023/11/24 04:26:03;;;;;;;7.20;1.97;;;8.90;29.10;;;;;;5024775;28;20186;-86
2023/11/24 04:28:29;;;;;;;7.70;1.93;;;8.90;99.90;;;;;;5049587;28;20544;-87
2023/11/24 04:30:54;;;;;;;14.53;2.20;;;8.80;1.00;;;;;;5034375;28;20265;-85
2023/11/24 04:33:20;;;;;;;8.90;2.10;;;8.80;99.90;;;;;;5049118;28;20187;-89
2023/11/24 04:35:46;;;;;;;13.67;2.47;;;8.70;99.90;;;;;;5037670;28;20205;-85
2023/11/24 04:38:15;;;;;;;7.13;1.80;;;8.60;1.00;;;;;;5052024;28;20535;-85
2023/11/24 04:40:41;;;;;;;12.90;2.37;;;8.50;1.00;;;;;;5044287;28;20429;-85
2023/11/24 04:43:06;;;;;;;11.00;2.80;;;8.50;99.90;;;;;;5050146;28;20452;-88
2023/11/24 04:45:32;;;;;;;13.03;2.70;;;8.40;99.90;;;;;;5041090;28;20194;-85
2023/11/24 04:47:57;;;;;;;9.47;2.40;;;8.30;1.00;;;;;;5046427;28;20225;-85
2023/11/24 04:50:23;;;;;;;5.20;1.90;;;8.30;1.00;;;;;;5044760;28;20249;-86
2023/11/24 04:52:48;;;;;;;13.80;2.33;;;8.20;1.00;;;;;;5043049;28;20225;-87
2023/11/24 04:55:15;;;;;;;12.13;2.93;;;8.20;13.60;;;;;;5032424;28;20190;-86
2023/11/24 04:57:41;;;;;;;14.43;2.60;;;8.20;25.70;;;;;;5048029;28;20221;-85
2023/11/24 05:00:07;;;;;;;10.77;2.37;;;8.10;97.40;;;;;;5049846;28;20441;-86
2023/11/24 05:02:33;;;;;;;11.13;2.27;;;8.10;99.90;;;;;;5051513;28;20657;-85
2023/11/24 05:04:59;;;;;;;9.60;2.40;;;8.10;99.90;;;;;;5044649;28;20732;-86
2023/11/24 05:07:25;;;;;;;12.53;3.10;;;8.10;99.90;;;;;;5049959;28;20437;-85
2023/11/24 05:09:51;;;;;;;13.63;2.63;;;8.10;99.90;;;;;;5045423;28;20219;-86
2023/11/24 05:12:16;;;;;;;7.90;1.83;;;8.10;99.90;;;;;;5049251;28;20436;-86
2023/11/24 05:14:42;;;;;;;15.57;3.00;;;8.20;99.90;;;;;;5047819;28;20214;-87
2023/11/24 05:17:07;;;;;;;12.80;3.77;;;8.20;99.90;;;;;;5047626;28;20201;-86
2023/11/24 05:19:33;;;;;;;7.77;2.17;;;8.20;20.60;;;;;;5024113;28;20230;-85
2023/11/24 05:21:58;;;;;;;9.07;2.30;;;8.30;1.00;;;;;;5050848;28;20186;-85
2023/11/24 05:24:24;;;;;;;8.50;1.93;;;8.30;1.00;;;;;;5048548;28;20195;-85
2023/11/24 05:26:49;;;;;;;11.80;2.93;;;8.30;1.00;;;;;;5048573;28;20189;-86
2023/11/24 05:29:15;;;;;;;9.37;2.30;;;8.40;1.00;;;;;;5046464;28;20226;-86
2023/11/24 05:31:41;;;;;;;6.03;2.03;;;8.40;1.00;;;;;;5036353;28;20199;-86
2023/11/24 05:34:06;;;;;;;10.70;2.47;;;8.40;99.90;;;;;;5049260;28;20210;-85
2023/11/24 05:36:33;;;;;;;10.63;1.90;;;8.40;99.90;;;;;;5051065;28;20186;-87
2023/11/24 05:38:59;;;;;;;13.93;2.43;;;8.50;99.90;;;;;;5027614;28;20222;-89
2023/11/24 05:41:26;;;;;;;15.33;2.40;;;8.40;99.90;;;;;;5051416;28;20520;-87
2023/11/24 05:43:52;;;;;;;5.90;1.87;;;8.40;99.90;;;;;;5039733;28;20186;-87
2023/11/24 05:46:18;;;;;;;13.13;2.33;;;8.40;99.90;;;;;;5022482;28;20441;-86
2023/11/24 05:48:44;;;;;;;9.13;2.40;;;8.40;99.90;;;;;;5047198;28;20461;-85
2023/11/24 05:51:09;;;;;;;8.27;2.33;;;8.40;99.90;;;;;;5051262;28;20201;-86
2023/11/24 05:53:35;;;;;;;7.20;2.27;;;8.40;1.00;;;;;;5046121;28;20174;-84
2023/11/24 05:56:02;;;;;;;7.87;2.10;;;8.40;1.00;;;;;;5032686;28;20587;-87
2023/11/24 05:58:27;;;;;;;10.83;2.40;;;8.40;1.00;;;;;;5028500;28;20210;-86
2023/11/24 06:00:53;;;;;;;17.63;2.43;;;8.30;1.00;;;;;;5041299;28;20454;-85
2023/11/24 06:03:19;;;;;;;9.87;3.13;;;8.30;1.00;;;;;;5046534;28;20183;-87
2023/11/24 06:05:44;;;;;;;10.80;2.70;;;8.30;1.00;;;;;;5029004;28;20633;-86
2023/11/24 06:08:12;;;;;;;10.13;1.80;;;8.30;1.00;;;;;;5034204;28;20536;-86
2023/11/24 06:10:38;;;;;;;19.80;2.57;;;8.40;1.00;;;;;;5037273;28;20183;-88
2023/11/24 06:13:03;;;;;;;4.07;1.90;;;8.40;1.00;;;;;;5024722;28;21000;-89
2023/11/24 06:15:29;;;;;;;11.57;2.03;;;8.40;1.00;;;;;;5030767;28;20213;-87
2023/11/24 06:17:54;;;;;;;6.50;1.97;;;8.40;1.00;;;;;;5048857;28;20233;-87
2023/11/24 06:20:20;;;;;;;18.87;2.80;;;8.40;1.00;;;;;;5043625;28;20209;-86
2023/11/24 06:22:45;;;;;;;11.77;3.47;;;8.40;1.00;;;;;;5042614;28;20186;-87
2023/11/24 06:25:11;;;;;;;12.00;2.70;;;8.40;48.00;;;;;;5024800;28;20270;-87
2023/11/24 06:27:37;;;;;;;17.63;3.43;;;8.40;99.90;;;;;;5032799;28;20633;-87
2023/11/24 06:30:05;;;;;;;12.35;3.25;;;8.40;99.90;;;;;;5047933;28;20198;-88
2023/11/24 06:32:31;;;;;;;13.03;2.30;;;8.40;99.90;;;;;;5022248;28;20190;-87
2023/11/24 06:34:58;;;;;;;14.83;3.03;;;8.40;99.90;;;;;;5022183;28;20989;-86
2023/11/24 06:37:23;;;;;;;16.70;3.17;;;8.40;99.90;;;;;;5041440;28;20518;-85
2023/11/24 06:39:49;;;;;;;17.10;2.80;;;8.30;99.90;;;;;;5037006;28;20437;-87
2023/11/24 06:42:15;;;;;;;10.07;2.20;;;8.40;99.90;;;;;;5037546;28;20191;-86
2023/11/24 06:44:40;;;;;;;10.60;2.40;;;8.40;99.90;;;;;;5041902;28;20238;-85
2023/11/24 06:47:07;;;;;;;15.33;2.70;;;8.40;99.90;;;;;;5039916;28;20186;-86
2023/11/24 06:49:32;;;;;;;11.30;2.53;;;8.40;99.90;;;;;;5018783;28;20190;-87
2023/11/24 06:52:01;;;;;;;21.10;3.90;;;8.40;99.90;;;;;;5035642;28;20472;-87
2023/11/24 06:54:28;;;;;;;31.27;3.13;;;8.40;1.00;;;;;;5024073;28;20193;-86
2023/11/24 06:56:54;;;;;;;24.13;5.57;;;8.40;1.00;;;;;;5046291;28;20437;-86
2023/11/24 06:59:20;;;;;;;23.40;3.30;;;8.40;1.00;;;;;;5048871;28;20472;-86
2023/11/24 07:01:46;;;;;;;14.90;3.40;;;8.40;1.00;;;;;;5023272;28;20449;-86
2023/11/24 07:04:11;;;;;;;14.27;2.63;;;8.40;1.00;;;;;;5024416;28;21093;-87
2023/11/24 07:06:37;;;;;;;11.17;3.20;;;8.50;1.00;;;;;;5040346;28;20694;-86
2023/11/24 07:09:03;;;;;;;15.90;3.60;;;8.50;1.00;;;;;;5025477;28;20571;-86
2023/11/24 07:11:29;;;;;;;15.50;3.43;;;8.50;1.00;;;;;;5044375;28;20497;-87
2023/11/24 07:13:54;;;;;;;17.67;3.00;;;8.50;1.00;;;;;;5041920;28;20448;-87
2023/11/24 07:16:20;;;;;;;13.00;3.30;;;8.50;1.00;;;;;;5036654;28;20187;-85
2023/11/24 07:18:45;;;;;;;11.83;2.20;;;8.50;1.00;;;;;;5040812;28;20245;-85
2023/11/24 07:21:11;;;;;;;13.40;2.67;;;8.50;1.00;;;;;;5036721;28;20194;-87
2023/11/24 07:23:37;;;;;;;17.43;3.73;;;8.50;1.00;;;;;;5014136;28;20187;-87
2023/11/24 07:26:04;;;;;;;7.57;2.73;;;8.50;1.00;;;;;;5035712;28;20202;-87
2023/11/24 07:28:30;;;;;;;8.43;2.20;;;8.50;1.00;;;;;;5034551;28;20469;-87
2023/11/24 07:30:55;;;;;;;9.93;3.23;;;8.50;1.00;;;;;;5031053;28;20492;-87
2023/11/24 07:33:21;;;;;;;7.57;2.00;;;8.40;99.90;;;;;;5041432;28;20249;-88
2023/11/24 07:35:46;;;;;;;10.97;2.40;;;8.30;99.90;;;;;;5026980;28;20187;-86
2023/11/24 07:38:13;;;;;;;11.67;2.33;;;8.30;99.90;;;;;;5045568;28;20233;-87
2023/11/24 07:40:39;;;;;;;8.50;2.15;;;8.30;99.90;;;;;;5047575;28;20187;-85
2023/11/24 07:43:04;;;;;;;12.60;3.07;;;8.30;99.90;;;;;;5009459;28;21509;-85
2023/11/24 07:45:30;;;;;;;7.80;2.70;;;8.30;99.90;;;;;;5035351;28;20182;-88
2023/11/24 07:47:56;;;;;;;8.83;2.00;;;8.20;99.90;;;;;;5043082;28;20206;-85
2023/11/24 07:50:21;;;;;;;5.60;1.80;;;8.20;99.90;;;;;;5023486;28;20186;-86
2023/11/24 07:52:47;;;;;;;15.53;1.80;;;8.10;99.90;;;;;;5039731;28;20205;-86
2023/11/24 07:55:13;;;;;;;8.40;2.53;;;8.10;99.90;;;;;;5042752;28;20191;-87
2023/11/24 07:57:39;;;;;;;10.93;2.00;;;8.10;99.90;;;;;;5047115;28;20221;-85
2023/11/24 08:00:09;;;;;;;6.90;1.80;;;8.10;1.00;;;;;;5022342;28;20433;-85
2023/11/24 08:02:35;;;;;;;14.63;2.75;;;8.00;34.80;;;;;;5022923;28;20463;-86
2023/11/24 08:05:00;;;;;;;8.53;2.27;;;7.90;99.90;;;;;;5035851;28;20195;-85
2023/11/24 08:07:26;;;;;;;7.30;1.70;;;7.90;99.90;;;;;;5039784;28;20250;-84
2023/11/24 08:09:52;;;;;;;13.73;2.43;;;8.00;99.90;;;;;;5038909;28;20194;-85
2023/11/24 08:12:17;;;;;;;4.50;1.50;;;8.10;1.00;;;;;;5022740;28;20232;-87
2023/11/24 08:14:42;;;;;;;8.37;1.80;;;8.20;99.90;;;;;;5038603;28;20187;-85
2023/11/24 08:17:08;;;;;;;7.07;1.40;;;9.50;1.00;;;;;;5039973;28;20209;-86
2023/11/24 08:19:35;;;;;;;8.20;2.23;;;11.60;1.00;;;;;;5040526;28;20195;-86
2023/11/24 08:22:01;;;;;;;5.53;2.53;;;13.50;1.00;;;;;;5035302;28;20270;-86
2023/11/24 08:24:27;;;;;;;7.73;1.83;;;14.90;1.00;;;;;;5039536;28;20491;-86
2023/11/24 08:26:52;;;;;;;8.47;1.37;;;15.40;99.90;;;;;;5037259;28;20556;-87
2023/11/24 08:29:18;;;;;;;9.03;1.67;;;16.10;99.90;;;;;;5038624;28;20269;-88
2023/11/24 08:31:45;;;;;;;2.67;1.10;;;16.90;99.90;;;;;;5040539;28;20211;-84
2023/11/24 08:34:11;;;;;;;7.13;1.50;;;15.90;99.90;;;;;;5040195;28;20186;-83
2023/11/24 08:36:36;;;;;;;5.97;1.83;;;15.30;99.90;;;;;;5041321;28;20445;-84
2023/11/24 08:39:12;;;;;;;4.30;1.80;;;15.50;99.90;;;;;;5041349;28;20719;-84
2023/11/24 08:41:38;;;;;;;5.20;1.30;;;16.10;99.90;;;;;;5015725;28;20533;-84
2023/11/24 08:44:04;;;;;;;5.00;2.30;;;17.20;99.90;;;;;;5034193;28;20829;-86
2023/11/24 08:46:30;;;;;;;4.33;1.67;;;18.40;99.90;;;;;;5039279;28;20529;-85
2023/11/24 08:48:56;;;;;;;6.93;1.90;;;18.00;99.90;;;;;;5022383;28;20226;-86
2023/11/24 08:51:21;;;;;;;8.00;1.90;;;16.70;99.90;;;;;;5024679;28;20225;-84
2023/11/24 08:53:47;;;;;;;9.93;1.87;;;15.10;99.90;;;;;;5039790;28;20859;-87
2023/11/24 08:56:12;;;;;;;8.60;3.03;;;14.00;99.90;;;;;;5017417;28;20202;-86
2023/11/24 08:58:38;;;;;;;4.20;2.27;;;13.40;99.90;;;;;;5032129;28;20234;-85
2023/11/24 09:01:05;;;;;;;6.70;1.67;;;13.20;99.90;;;;;;5017633;28;20187;-85
2023/11/24 09:03:31;;;;;;;15.93;2.47;;;13.10;99.90;;;;;;5035287;28;20187;-84
2023/11/24 09:05:57;;;;;;;5.70;2.10;;;12.50;1.00;;;;;;5017654;28;20437;-85
2023/11/24 09:08:23;;;;;;;6.80;2.33;;;11.90;1.00;;;;;;5037382;28;20569;-85
2023/11/24 09:10:49;;;;;;;4.97;2.70;;;11.60;1.00;;;;;;5017782;28;20444;-85
2023/11/24 09:13:15;;;;;;;7.33;1.90;;;11.40;1.00;;;;;;5032291;28;20524;-85
2023/11/24 09:15:43;;;;;;;9.00;2.30;;;11.20;1.00;;;;;;5041042;28;20454;-87
2023/11/24 09:18:10;;;;;;;6.90;1.60;;;11.00;1.00;;;;;;5023005;28;21023;-87
2023/11/24 09:20:37;;;;;;;4.30;1.70;;;10.70;1.00;;;;;;5039129;28;20479;-86
2023/11/24 09:23:04;;;;;;;5.17;1.80;;;10.40;1.00;;;;;;5021492;28;20437;-85
2023/11/24 09:25:31;;;;;;;7.87;1.80;;;10.00;1.00;;;;;;5041793;28;20429;-86
2023/11/24 09:27:58;;;;;;;5.80;1.50;;;9.80;99.90;;;;;;5034856;28;20576;-85
2023/11/24 09:30:23;;;;;;;5.10;1.40;;;9.80;99.90;;;;;;5041487;28;20499;-86
2023/11/24 09:32:50;;;;;;;8.43;2.00;;;9.70;99.90;;;;;;5044654;28;20433;-85
2023/11/24 09:35:16;;;;;;;4.23;1.80;;;9.70;1.00;;;;;;5044109;28;20198;-85
2023/11/24 09:37:41;;;;;;;3.00;1.30;;;9.70;1.00;;;;;;5044394;28;20468;-88
2023/11/24 09:40:12;;;;;;;5.87;2.37;;;9.60;60.80;;;;;;5043678;28;20609;-85
2023/11/24 09:42:44;;;;;;;4.10;1.30;;;9.60;1.00;;;;;;5042907;28;20190;-86
2023/11/24 09:45:15;;;;;;;6.03;1.67;;;9.50;1.00;;;;;;5036510;28;20439;-87
2023/11/24 09:47:43;;;;;;;8.03;1.60;;;9.30;99.90;;;;;;5020024;28;20497;-87
2023/11/24 09:50:12;;;;;;;9.43;2.17;;;9.10;1.00;;;;;;5041382;28;20855;-86
2023/11/24 09:52:42;;;;;;;7.33;1.63;;;8.90;1.00;;;;;;5038149;28;20440;-88
2023/11/24 09:55:08;;;;;;;9.23;1.60;;;8.80;99.90;;;;;;5044578;28;20475;-85
2023/11/24 09:57:33;;;;;;;3.57;1.50;;;8.60;99.90;;;;;;5042375;28;20453;-86
2023/11/24 09:59:59;;;;;;;5.57;1.57;;;8.60;99.90;;;;;;5019820;28;20488;-86
2023/11/24 10:02:26;;;;;;;3.77;0.97;;;8.50;99.90;;;;;;5042551;28;20186;-85
2023/11/24 10:04:52;;;;;;;6.03;1.50;;;8.50;99.90;;;;;;5035236;28;20435;-86
2023/11/24 10:07:22;;;;;;;4.77;1.50;;;8.30;99.90;;;;;;5033086;28;20773;-87
2023/11/24 10:09:48;;;;;;;6.63;1.27;;;8.30;99.90;;;;;;5026453;28;20498;-87
2023/11/24 10:12:15;;;;;;;4.50;1.10;;;8.40;1.00;;;;;;5032488;28;20491;-86
2023/11/24 10:14:43;;;;;;;4.10;1.10;;;8.50;1.00;;;;;;5012491;28;20425;-87
2023/11/24 10:17:09;;;;;;;5.40;2.03;;;8.50;93.10;;;;;;5034323;28;20437;-85
2023/11/24 10:19:36;;;;;;;12.63;1.77;;;8.50;99.90;;;;;;5033654;28;20962;-86
2023/11/24 10:22:02;;;;;;;3.20;1.53;;;8.80;1.00;;;;;;5033824;28;20483;-86
2023/11/24 10:24:32;;;;;;;3.20;1.30;;;8.80;22.80;;;;;;5029651;28;20438;-85
2023/11/24 10:26:58;;;;;;;4.13;1.47;;;9.00;75.80;;;;;;5036846;28;20449;-85
2023/11/24 10:29:27;;;;;;;8.30;1.63;;;9.00;1.00;;;;;;5018785;28;20485;-85
2023/11/24 10:31:52;;;;;;;5.60;1.20;;;9.00;1.00;;;;;;5033525;28;20432;-85
2023/11/24 10:34:18;;;;;;;4.30;1.20;;;9.00;99.90;;;;;;5035098;28;20911;-84
2023/11/24 10:36:45;;;;;;;3.47;1.00;;;8.70;99.90;;;;;;5034344;28;20191;-84
2023/11/24 10:39:14;;;;;;;5.13;1.23;;;8.50;1.00;;;;;;5012253;28;20218;-85
2023/11/24 10:41:42;;;;;;;3.43;1.13;;;8.50;1.00;;;;;;5033121;28;20436;-85
2023/11/24 10:44:12;;;;;;;10.47;2.17;;;8.30;1.00;;;;;;5017682;28;20405;-84
2023/11/24 10:46:43;;;;;;;4.50;1.93;;;8.20;99.90;;;;;;5007275;28;20480;-87
2023/11/24 10:49:34;;;;;;;11.97;1.40;;;8.30;10.90;;;;;;5034893;28;20484;-85
2023/11/24 10:52:01;;;;;;;3.83;1.97;;;8.60;1.00;;;;;;5016253;28;20430;-85
2023/11/24 10:54:39;;;;;;;2.80;1.50;;;8.70;1.00;;;;;;5035377;28;20448;-83
2023/11/24 10:57:06;;;;;;;3.40;1.30;;;8.90;99.90;;;;;;5033016;28;20499;-83
2023/11/24 10:59:34;;;;;;;5.17;1.60;;;8.90;88.30;;;;;;5030029;28;20523;-85
2023/11/24 11:02:05;;;;;;;4.30;1.20;;;8.90;52.00;;;;;;5031794;28;20529;-81
2023/11/24 11:04:32;;;;;;;5.33;1.20;;;9.00;98.60;;;;;;5031989;28;20475;-84
2023/11/24 11:07:16;;;;;;;3.20;1.30;;;9.60;1.00;;;;;;5031228;28;20528;-84
2023/11/24 11:09:58;;;;;;;5.10;1.20;;;10.50;99.90;;;;;;5012833;28;20448;-84
2023/11/24 11:12:51;;;;;;;2.93;1.37;;;11.10;1.00;;;;;;5027506;28;20519;-84
2023/11/24 11:15:21;;;;;;;2.27;0.90;;;12.40;1.00;;;;;;5028731;28;20524;-83
2023/11/24 11:18:08;;;;;;;3.97;1.20;;;13.30;1.00;;;;;;5014012;28;20469;-80
2023/11/24 11:20:37;;;;;;;3.13;1.30;;;13.40;99.90;;;;;;5009335;28;20527;-81
2023/11/24 11:23:03;;;;;;;2.63;1.00;;;14.40;99.90;;;;;;5012033;28;20610;-82
2023/11/24 11:25:35;;;;;;;5.87;1.33;;;13.90;99.90;;;;;;5015580;28;20774;-83
2023/11/24 11:28:20;;;;;;;6.23;1.50;;;13.30;99.90;;;;;;5016770;28;20480;-84
2023/11/24 11:30:57;;;;;;;6.40;2.20;;;12.60;99.90;;;;;;5034088;28;20509;-85
2023/11/24 11:33:24;;;;;;;4.30;1.60;;;11.80;99.90;;;;;;5021725;28;20436;-85
2023/11/24 11:36:02;;;;;;;3.10;1.67;;;11.00;99.90;;;;;;5012452;28;20437;-85
2023/11/24 11:38:43;;;;;;;3.10;1.37;;;10.30;1.00;;;;;;5011310;28;20465;-84
2023/11/24 11:41:09;;;;;;;3.73;1.60;;;9.80;1.00;;;;;;5009436;28;20532;-85
2023/11/24 11:43:52;;;;;;;3.57;1.10;;;9.90;96.00;;;;;;5011987;28;20814;-85
2023/11/24 11:46:18;;;;;;;5.23;1.30;;;9.80;1.00;;;;;;5031966;28;20967;-84
2023/11/24 11:48:43;;;;;;;5.80;1.53;;;10.50;1.00;;;;;;5031872;28;20556;-84
2023/11/24 11:51:15;;;;;;;6.40;1.40;;;10.60;1.00;;;;;;5033835;28;20241;-88
2023/11/24 11:53:41;;;;;;;3.30;1.43;;;11.10;1.00;;;;;;5033098;28;20178;-83
2023/11/24 11:56:09;;;;;;;3.93;1.60;;;11.40;1.00;;;;;;5032977;28;20424;-85
2023/11/24 11:58:34;;;;;;;3.87;1.23;;;11.90;1.00;;;;;;5032650;28;20233;-84
2023/11/24 12:01:05;;;;;;;5.70;1.87;;;12.90;99.90;;;;;;5034141;28;20425;-86
2023/11/24 12:03:34;;;;;;;2.37;1.03;;;13.50;99.90;;;;;;5014613;28;20220;-84
2023/11/24 12:06:05;;;;;;;4.60;1.40;;;13.30;99.90;;;;;;5032173;28;20439;-84
2023/11/24 12:08:31;;;;;;;5.97;1.60;;;12.60;99.90;;;;;;5017123;28;21080;-86
2023/11/24 12:10:57;;;;;;;3.60;1.50;;;11.90;99.90;;;;;;5036826;28;20413;-86
2023/11/24 12:13:24;;;;;;;3.63;1.40;;;11.60;99.90;;;;;;5020356;28;20429;-85
2023/11/24 12:15:50;;;;;;;4.77;1.27;;;11.60;99.90;;;;;;5032233;28;20656;-84
2023/11/24 12:18:17;;;;;;;8.33;1.83;;;11.40;99.90;;;;;;5037853;28;20436;-86
2023/11/24 12:20:44;;;;;;;5.60;1.70;;;11.00;99.90;;;;;;5035756;28;20438;-84
2023/11/24 12:23:11;;;;;;;6.50;1.47;;;10.60;99.90;;;;;;5035302;28;20441;-86
2023/11/24 12:25:38;;;;;;;7.00;1.97;;;10.30;99.90;;;;;;5038230;28;20429;-85
2023/11/24 12:28:11;;;;;;;12.37;1.77;;;10.00;99.90;;;;;;5036317;28;20531;-86
2023/11/24 12:30:42;;;;;;;6.57;1.60;;;9.80;99.90;;;;;;5017286;28;22546;-83
2023/11/24 12:33:21;;;;;;;3.97;1.77;;;9.50;1.00;;;;;;5033561;28;20433;-86
2023/11/24 12:35:53;;;;;;;5.43;1.87;;;9.20;1.00;;;;;;5032805;28;20433;-86
2023/11/24 12:38:20;;;;;;;8.13;2.50;;;8.80;1.00;;;;;;5037979;28;20456;-87
2023/11/24 12:40:47;;;;;;;7.87;2.40;;;8.60;1.00;;;;;;5038149;28;20432;-86
2023/11/24 12:43:13;;;;;;;6.40;2.37;;;8.30;2.10;;;;;;5037278;28;20437;-86
2023/11/24 12:45:43;;;;;;;16.00;4.93;;;8.20;99.90;;;;;;5030937;28;20460;-87
2023/11/24 12:48:18;;;;;;;32.80;11.00;;;8.10;99.90;;;;;;5019616;28;20823;-86
2023/11/24 12:50:47;;;;;;;14.00;2.67;;;8.00;99.90;;;;;;5027039;28;20523;-84